Heaton, North Dakota
Current Conditions -  °F | °C
As of 6:15 PM on Friday 28 Nov 2014 (Local Time) from K46D Reporting Station
Overcast Overcast  
Wind Chill: -4°   Ceiling: 500
Heat Index: 14°   Visibility: 7mi
Dew Point: 12°   Wind: 21mph
Humidity: 93%   Direction: 140°SE
Pressure: 29.6"   Gusts: 26mph
Location:  47.3925°N, 99.7137°W
Report Text: K46D 290015Z AUTO 14018G23KT 7SM OVC005 M10/M11 A2960 RMK AO2
Loading
Personal Weather Stations






























Interactive Weather Map New forecast layout! Learn more

10-Day Weather Forecast

Advertisements
Track Severe Weather on mobile